sensor_id;sensor_type;location;lat;lon;timestamp;P1;durP1;ratioP1;P2;durP2;ratioP2
46745;SDS011;32493;50.514;9.678;2024-03-07T00:01:47;50.15;;;24.15;;
46745;SDS011;32493;50.514;9.678;2024-03-07T00:04:17;49.50;;;23.45;;
46745;SDS011;32493;50.514;9.678;2024-03-07T00:06:48;47.80;;;24.10;;
46745;SDS011;32493;50.514;9.678;2024-03-07T00:09:18;45.10;;;23.67;;
46745;SDS011;32493;50.514;9.678;2024-03-07T00:11:51;46.75;;;23.60;;
46745;SDS011;32493;50.514;9.678;2024-03-07T00:14:21;48.85;;;24.55;;
46745;SDS011;32493;50.514;9.678;2024-03-07T00:16:56;47.97;;;23.30;;
46745;SDS011;32493;50.514;9.678;2024-03-07T00:19:34;50.58;;;24.25;;
46745;SDS011;32493;50.514;9.678;2024-03-07T00:22:06;53.45;;;25.17;;
46745;SDS011;32493;50.514;9.678;2024-03-07T00:24:41;55.38;;;24.35;;
46745;SDS011;32493;50.514;9.678;2024-03-07T00:27:17;51.90;;;24.27;;
46745;SDS011;32493;50.514;9.678;2024-03-07T00:29:49;47.92;;;23.92;;
46745;SDS011;32493;50.514;9.678;2024-03-07T00:32:28;49.47;;;23.42;;
46745;SDS011;32493;50.514;9.678;2024-03-07T00:35:04;49.30;;;23.27;;
46745;SDS011;32493;50.514;9.678;2024-03-07T00:37:43;50.20;;;24.25;;
46745;SDS011;32493;50.514;9.678;2024-03-07T00:40:17;49.72;;;22.65;;
46745;SDS011;32493;50.514;9.678;2024-03-07T00:42:49;51.38;;;23.02;;
46745;SDS011;32493;50.514;9.678;2024-03-07T00:45:21;51.25;;;23.95;;
46745;SDS011;32493;50.514;9.678;2024-03-07T00:48:04;46.67;;;21.60;;
46745;SDS011;32493;50.514;9.678;2024-03-07T00:50:39;42.72;;;20.83;;
46745;SDS011;32493;50.514;9.678;2024-03-07T00:53:14;50.03;;;23.00;;
46745;SDS011;32493;50.514;9.678;2024-03-07T00:55:49;44.35;;;22.38;;
46745;SDS011;32493;50.514;9.678;2024-03-07T00:58:22;49.58;;;21.75;;
46745;SDS011;32493;50.514;9.678;2024-03-07T01:00:54;46.05;;;21.88;;
46745;SDS011;32493;50.514;9.678;2024-03-07T01:03:29;46.45;;;22.52;;
46745;SDS011;32493;50.514;9.678;2024-03-07T01:06:04;48.33;;;22.63;;
46745;SDS011;32493;50.514;9.678;2024-03-07T01:08:40;53.75;;;22.83;;
46745;SDS011;32493;50.514;9.678;2024-03-07T01:11:18;55.40;;;23.42;;
46745;SDS011;32493;50.514;9.678;2024-03-07T01:13:53;51.13;;;22.33;;
46745;SDS011;32493;50.514;9.678;2024-03-07T01:16:23;48.33;;;22.27;;
46745;SDS011;32493;50.514;9.678;2024-03-07T01:19:00;48.22;;;23.13;;
46745;SDS011;32493;50.514;9.678;2024-03-07T01:21:45;51.72;;;23.33;;
46745;SDS011;32493;50.514;9.678;2024-03-07T01:24:18;48.45;;;22.27;;
46745;SDS011;32493;50.514;9.678;2024-03-07T01:26:49;53.30;;;24.38;;
46745;SDS011;32493;50.514;9.678;2024-03-07T01:29:22;51.33;;;22.40;;
46745;SDS011;32493;50.514;9.678;2024-03-07T01:31:56;53.58;;;24.20;;
46745;SDS011;32493;50.514;9.678;2024-03-07T01:34:32;55.30;;;24.20;;
46745;SDS011;32493;50.514;9.678;2024-03-07T01:37:04;54.97;;;23.58;;
46745;SDS011;32493;50.514;9.678;2024-03-07T01:39:37;54.97;;;23.75;;
46745;SDS011;32493;50.514;9.678;2024-03-07T01:42:08;55.47;;;24.48;;
46745;SDS011;32493;50.514;9.678;2024-03-07T01:44:40;55.08;;;24.25;;
46745;SDS011;32493;50.514;9.678;2024-03-07T01:47:16;53.65;;;24.80;;
46745;SDS011;32493;50.514;9.678;2024-03-07T01:49:51;58.33;;;24.40;;
46745;SDS011;32493;50.514;9.678;2024-03-07T01:52:24;51.50;;;23.45;;
46745;SDS011;32493;50.514;9.678;2024-03-07T01:54:55;56.28;;;24.45;;
46745;SDS011;32493;50.514;9.678;2024-03-07T01:57:28;54.47;;;23.40;;
46745;SDS011;32493;50.514;9.678;2024-03-07T02:00:04;47.20;;;22.52;;
46745;SDS011;32493;50.514;9.678;2024-03-07T02:02:36;49.85;;;22.55;;
46745;SDS011;32493;50.514;9.678;2024-03-07T02:05:09;49.60;;;22.88;;
46745;SDS011;32493;50.514;9.678;2024-03-07T02:07:42;54.03;;;23.98;;
46745;SDS011;32493;50.514;9.678;2024-03-07T02:10:13;52.00;;;23.90;;
46745;SDS011;32493;50.514;9.678;2024-03-07T02:12:50;53.40;;;23.58;;
46745;SDS011;32493;50.514;9.678;2024-03-07T02:15:23;53.20;;;22.40;;
46745;SDS011;32493;50.514;9.678;2024-03-07T02:17:54;48.65;;;21.63;;
46745;SDS011;32493;50.514;9.678;2024-03-07T02:20:28;52.58;;;22.75;;
46745;SDS011;32493;50.514;9.678;2024-03-07T02:23:02;50.35;;;21.90;;
46745;SDS011;32493;50.514;9.678;2024-03-07T02:25:44;57.80;;;25.15;;
46745;SDS011;32493;50.514;9.678;2024-03-07T02:28:15;52.15;;;22.83;;
46745;SDS011;32493;50.514;9.678;2024-03-07T02:30:50;52.63;;;22.55;;
46745;SDS011;32493;50.514;9.678;2024-03-07T02:33:25;53.70;;;23.98;;
46745;SDS011;32493;50.514;9.678;2024-03-07T02:35:59;53.10;;;23.00;;
46745;SDS011;32493;50.514;9.678;2024-03-07T02:38:32;55.67;;;22.95;;
46745;SDS011;32493;50.514;9.678;2024-03-07T02:41:05;52.38;;;23.05;;
46745;SDS011;32493;50.514;9.678;2024-03-07T02:43:41;60.05;;;24.10;;
46745;SDS011;32493;50.514;9.678;2024-03-07T02:46:14;57.65;;;23.35;;
46745;SDS011;32493;50.514;9.678;2024-03-07T02:48:46;54.60;;;22.80;;
46745;SDS011;32493;50.514;9.678;2024-03-07T02:51:17;57.75;;;23.60;;
46745;SDS011;32493;50.514;9.678;2024-03-07T02:53:53;56.85;;;23.60;;
46745;SDS011;32493;50.514;9.678;2024-03-07T02:56:27;57.13;;;22.08;;
46745;SDS011;32493;50.514;9.678;2024-03-07T02:58:59;52.30;;;24.38;;
46745;SDS011;32493;50.514;9.678;2024-03-07T03:01:31;53.58;;;22.15;;
46745;SDS011;32493;50.514;9.678;2024-03-07T03:04:02;54.08;;;23.38;;
46745;SDS011;32493;50.514;9.678;2024-03-07T03:06:39;58.97;;;24.85;;
46745;SDS011;32493;50.514;9.678;2024-03-07T03:09:14;57.58;;;24.15;;
46745;SDS011;32493;50.514;9.678;2024-03-07T03:11:48;60.23;;;24.20;;
46745;SDS011;32493;50.514;9.678;2024-03-07T03:14:24;59.20;;;24.70;;
46745;SDS011;32493;50.514;9.678;2024-03-07T03:16:59;53.78;;;23.75;;
46745;SDS011;32493;50.514;9.678;2024-03-07T03:19:29;53.88;;;24.50;;
46745;SDS011;32493;50.514;9.678;2024-03-07T03:22:04;60.92;;;24.58;;
46745;SDS011;32493;50.514;9.678;2024-03-07T03:24:37;54.83;;;25.02;;
46745;SDS011;32493;50.514;9.678;2024-03-07T03:27:11;50.50;;;23.73;;
46745;SDS011;32493;50.514;9.678;2024-03-07T03:29:43;51.20;;;23.20;;
46745;SDS011;32493;50.514;9.678;2024-03-07T03:32:15;52.88;;;23.80;;
46745;SDS011;32493;50.514;9.678;2024-03-07T03:34:46;47.85;;;21.90;;
46745;SDS011;32493;50.514;9.678;2024-03-07T03:37:19;52.03;;;23.38;;
46745;SDS011;32493;50.514;9.678;2024-03-07T03:40:01;48.40;;;23.00;;
46745;SDS011;32493;50.514;9.678;2024-03-07T03:42:40;52.15;;;23.58;;
46745;SDS011;32493;50.514;9.678;2024-03-07T03:45:13;46.28;;;21.17;;
46745;SDS011;32493;50.514;9.678;2024-03-07T03:47:44;49.42;;;22.52;;
46745;SDS011;32493;50.514;9.678;2024-03-07T03:50:17;46.83;;;22.77;;
46745;SDS011;32493;50.514;9.678;2024-03-07T03:52:53;43.75;;;21.92;;
46745;SDS011;32493;50.514;9.678;2024-03-07T03:55:34;47.50;;;22.48;;
46745;SDS011;32493;50.514;9.678;2024-03-07T03:58:06;46.47;;;21.67;;
46745;SDS011;32493;50.514;9.678;2024-03-07T04:00:39;41.03;;;21.60;;
46745;SDS011;32493;50.514;9.678;2024-03-07T04:03:21;46.85;;;22.80;;
46745;SDS011;32493;50.514;9.678;2024-03-07T04:05:52;45.50;;;21.80;;
46745;SDS011;32493;50.514;9.678;2024-03-07T04:08:25;45.22;;;23.10;;
46745;SDS011;32493;50.514;9.678;2024-03-07T04:11:03;45.65;;;22.27;;
46745;SDS011;32493;50.514;9.678;2024-03-07T04:13:37;50.40;;;22.75;;
46745;SDS011;32493;50.514;9.678;2024-03-07T04:16:11;48.22;;;22.10;;
46745;SDS011;32493;50.514;9.678;2024-03-07T04:18:45;43.90;;;22.10;;
46745;SDS011;32493;50.514;9.678;2024-03-07T04:21:16;46.90;;;23.20;;
46745;SDS011;32493;50.514;9.678;2024-03-07T04:23:46;39.95;;;19.98;;
46745;SDS011;32493;50.514;9.678;2024-03-07T04:26:26;44.83;;;22.27;;
46745;SDS011;32493;50.514;9.678;2024-03-07T04:29:00;44.95;;;21.92;;
46745;SDS011;32493;50.514;9.678;2024-03-07T04:31:33;44.47;;;22.70;;
46745;SDS011;32493;50.514;9.678;2024-03-07T04:34:05;49.58;;;22.70;;
46745;SDS011;32493;50.514;9.678;2024-03-07T04:36:36;47.97;;;22.80;;
46745;SDS011;32493;50.514;9.678;2024-03-07T04:39:10;46.30;;;22.92;;
46745;SDS011;32493;50.514;9.678;2024-03-07T04:41:54;46.35;;;22.75;;
46745;SDS011;32493;50.514;9.678;2024-03-07T04:44:27;46.63;;;22.42;;
46745;SDS011;32493;50.514;9.678;2024-03-07T04:47:02;45.80;;;22.60;;
46745;SDS011;32493;50.514;9.678;2024-03-07T04:49:37;46.08;;;22.52;;
46745;SDS011;32493;50.514;9.678;2024-03-07T04:52:15;47.80;;;23.42;;
46745;SDS011;32493;50.514;9.678;2024-03-07T04:54:47;52.03;;;24.35;;
46745;SDS011;32493;50.514;9.678;2024-03-07T04:57:22;53.47;;;24.08;;
46745;SDS011;32493;50.514;9.678;2024-03-07T04:59:53;45.92;;;23.30;;
46745;SDS011;32493;50.514;9.678;2024-03-07T05:02:27;52.10;;;23.25;;
46745;SDS011;32493;50.514;9.678;2024-03-07T05:05:00;50.63;;;23.25;;
46745;SDS011;32493;50.514;9.678;2024-03-07T05:07:32;53.20;;;24.40;;
46745;SDS011;32493;50.514;9.678;2024-03-07T05:10:03;56.25;;;24.33;;
46745;SDS011;32493;50.514;9.678;2024-03-07T05:12:41;53.80;;;24.05;;
46745;SDS011;32493;50.514;9.678;2024-03-07T05:15:20;50.80;;;23.60;;
46745;SDS011;32493;50.514;9.678;2024-03-07T05:17:52;55.35;;;23.85;;
46745;SDS011;32493;50.514;9.678;2024-03-07T05:20:25;54.13;;;24.85;;
46745;SDS011;32493;50.514;9.678;2024-03-07T05:22:58;52.15;;;25.05;;
46745;SDS011;32493;50.514;9.678;2024-03-07T05:25:31;55.55;;;24.73;;
46745;SDS011;32493;50.514;9.678;2024-03-07T05:28:05;55.38;;;25.08;;
46745;SDS011;32493;50.514;9.678;2024-03-07T05:30:37;58.90;;;26.40;;
46745;SDS011;32493;50.514;9.678;2024-03-07T05:33:12;54.30;;;25.35;;
46745;SDS011;32493;50.514;9.678;2024-03-07T05:35:48;57.35;;;25.35;;
46745;SDS011;32493;50.514;9.678;2024-03-07T05:38:41;53.25;;;23.85;;
46745;SDS011;32493;50.514;9.678;2024-03-07T05:41:12;53.72;;;24.15;;
46745;SDS011;32493;50.514;9.678;2024-03-07T05:43:47;52.28;;;23.10;;
46745;SDS011;32493;50.514;9.678;2024-03-07T05:48:55;48.70;;;21.95;;
46745;SDS011;32493;50.514;9.678;2024-03-07T05:51:33;47.40;;;22.67;;
46745;SDS011;32493;50.514;9.678;2024-03-07T05:54:03;45.65;;;20.90;;
46745;SDS011;32493;50.514;9.678;2024-03-07T05:56:34;47.58;;;22.70;;
46745;SDS011;32493;50.514;9.678;2024-03-07T05:59:09;51.78;;;22.90;;
46745;SDS011;32493;50.514;9.678;2024-03-07T06:01:47;50.60;;;22.75;;
46745;SDS011;32493;50.514;9.678;2024-03-07T06:04:21;53.35;;;24.08;;
46745;SDS011;32493;50.514;9.678;2024-03-07T06:07:01;51.42;;;21.92;;
46745;SDS011;32493;50.514;9.678;2024-03-07T06:09:34;48.55;;;22.05;;
46745;SDS011;32493;50.514;9.678;2024-03-07T06:12:04;53.30;;;22.85;;
46745;SDS011;32493;50.514;9.678;2024-03-07T06:14:50;49.33;;;22.92;;
46745;SDS011;32493;50.514;9.678;2024-03-07T06:17:23;47.85;;;22.13;;
46745;SDS011;32493;50.514;9.678;2024-03-07T06:20:00;47.50;;;22.67;;
46745;SDS011;32493;50.514;9.678;2024-03-07T06:22:33;45.70;;;22.38;;
46745;SDS011;32493;50.514;9.678;2024-03-07T06:25:04;46.42;;;23.15;;
46745;SDS011;32493;50.514;9.678;2024-03-07T06:27:48;42.63;;;21.60;;
46745;SDS011;32493;50.514;9.678;2024-03-07T06:30:25;46.35;;;21.42;;
46745;SDS011;32493;50.514;9.678;2024-03-07T06:33:00;46.50;;;21.33;;
46745;SDS011;32493;50.514;9.678;2024-03-07T06:35:34;48.03;;;22.00;;
46745;SDS011;32493;50.514;9.678;2024-03-07T06:38:09;44.42;;;20.77;;
46745;SDS011;32493;50.514;9.678;2024-03-07T06:40:40;40.55;;;20.05;;
46745;SDS011;32493;50.514;9.678;2024-03-07T06:43:20;43.00;;;20.85;;
46745;SDS011;32493;50.514;9.678;2024-03-07T06:45:53;42.38;;;21.85;;
46745;SDS011;32493;50.514;9.678;2024-03-07T06:48:24;43.05;;;21.08;;
46745;SDS011;32493;50.514;9.678;2024-03-07T06:50:55;44.15;;;22.15;;
46745;SDS011;32493;50.514;9.678;2024-03-07T06:53:30;42.45;;;21.00;;
46745;SDS011;32493;50.514;9.678;2024-03-07T06:56:04;42.50;;;20.48;;
46745;SDS011;32493;50.514;9.678;2024-03-07T06:58:40;42.67;;;22.17;;
46745;SDS011;32493;50.514;9.678;2024-03-07T07:01:18;41.92;;;21.58;;
46745;SDS011;32493;50.514;9.678;2024-03-07T07:03:48;44.72;;;21.08;;
46745;SDS011;32493;50.514;9.678;2024-03-07T07:06:20;44.30;;;21.05;;
46745;SDS011;32493;50.514;9.678;2024-03-07T07:08:55;47.15;;;23.33;;
46745;SDS011;32493;50.514;9.678;2024-03-07T07:11:30;47.30;;;21.85;;
46745;SDS011;32493;50.514;9.678;2024-03-07T07:14:01;44.75;;;21.02;;
46745;SDS011;32493;50.514;9.678;2024-03-07T07:16:39;42.03;;;21.45;;
46745;SDS011;32493;50.514;9.678;2024-03-07T07:19:13;42.53;;;20.33;;
46745;SDS011;32493;50.514;9.678;2024-03-07T07:21:49;49.20;;;22.15;;
46745;SDS011;32493;50.514;9.678;2024-03-07T07:24:23;38.28;;;20.27;;
46745;SDS011;32493;50.514;9.678;2024-03-07T07:26:58;43.42;;;20.48;;
46745;SDS011;32493;50.514;9.678;2024-03-07T07:29:28;43.55;;;21.48;;
46745;SDS011;32493;50.514;9.678;2024-03-07T07:32:04;45.08;;;21.33;;
46745;SDS011;32493;50.514;9.678;2024-03-07T07:34:41;41.42;;;20.33;;
46745;SDS011;32493;50.514;9.678;2024-03-07T07:37:11;45.83;;;22.17;;
46745;SDS011;32493;50.514;9.678;2024-03-07T07:39:47;40.28;;;20.45;;
46745;SDS011;32493;50.514;9.678;2024-03-07T07:42:19;43.97;;;21.38;;
46745;SDS011;32493;50.514;9.678;2024-03-07T07:44:49;45.50;;;22.48;;
46745;SDS011;32493;50.514;9.678;2024-03-07T07:47:25;44.38;;;21.67;;
46745;SDS011;32493;50.514;9.678;2024-03-07T07:49:56;49.08;;;22.90;;
46745;SDS011;32493;50.514;9.678;2024-03-07T07:52:29;44.30;;;22.23;;
46745;SDS011;32493;50.514;9.678;2024-03-07T07:55:09;43.15;;;21.92;;
46745;SDS011;32493;50.514;9.678;2024-03-07T07:57:42;45.03;;;21.33;;
46745;SDS011;32493;50.514;9.678;2024-03-07T08:00:15;46.60;;;21.73;;
46745;SDS011;32493;50.514;9.678;2024-03-07T08:02:55;47.35;;;22.90;;
46745;SDS011;32493;50.514;9.678;2024-03-07T08:05:31;44.08;;;22.65;;
46745;SDS011;32493;50.514;9.678;2024-03-07T08:08:03;44.33;;;21.38;;
46745;SDS011;32493;50.514;9.678;2024-03-07T08:10:38;43.65;;;21.80;;
46745;SDS011;32493;50.514;9.678;2024-03-07T08:13:11;44.55;;;22.75;;
46745;SDS011;32493;50.514;9.678;2024-03-07T08:15:50;46.40;;;22.05;;
46745;SDS011;32493;50.514;9.678;2024-03-07T08:18:26;43.28;;;21.65;;
46745;SDS011;32493;50.514;9.678;2024-03-07T08:20:56;43.20;;;21.40;;
46745;SDS011;32493;50.514;9.678;2024-03-07T08:23:27;42.83;;;21.00;;
46745;SDS011;32493;50.514;9.678;2024-03-07T08:26:00;42.97;;;21.35;;
46745;SDS011;32493;50.514;9.678;2024-03-07T08:28:34;42.78;;;22.05;;
46745;SDS011;32493;50.514;9.678;2024-03-07T08:31:07;41.88;;;20.33;;
46745;SDS011;32493;50.514;9.678;2024-03-07T08:33:42;41.92;;;19.77;;
46745;SDS011;32493;50.514;9.678;2024-03-07T08:36:17;42.05;;;20.23;;
46745;SDS011;32493;50.514;9.678;2024-03-07T08:38:52;43.75;;;20.83;;
46745;SDS011;32493;50.514;9.678;2024-03-07T08:41:23;43.65;;;20.88;;
46745;SDS011;32493;50.514;9.678;2024-03-07T08:43:55;40.80;;;19.77;;
46745;SDS011;32493;50.514;9.678;2024-03-07T08:46:29;37.20;;;17.85;;
46745;SDS011;32493;50.514;9.678;2024-03-07T08:49:04;37.33;;;18.70;;
46745;SDS011;32493;50.514;9.678;2024-03-07T08:51:34;37.88;;;19.83;;
46745;SDS011;32493;50.514;9.678;2024-03-07T08:54:07;34.10;;;17.85;;
46745;SDS011;32493;50.514;9.678;2024-03-07T08:56:37;34.15;;;16.58;;
46745;SDS011;32493;50.514;9.678;2024-03-07T08:59:12;37.65;;;17.88;;
46745;SDS011;32493;50.514;9.678;2024-03-07T09:01:45;32.60;;;16.65;;
46745;SDS011;32493;50.514;9.678;2024-03-07T09:04:18;29.77;;;16.90;;
46745;SDS011;32493;50.514;9.678;2024-03-07T09:06:49;32.75;;;17.13;;
46745;SDS011;32493;50.514;9.678;2024-03-07T09:09:19;30.95;;;16.27;;
46745;SDS011;32493;50.514;9.678;2024-03-07T09:11:55;29.60;;;17.08;;
46745;SDS011;32493;50.514;9.678;2024-03-07T09:14:29;31.33;;;16.02;;
46745;SDS011;32493;50.514;9.678;2024-03-07T09:17:00;30.10;;;15.43;;
46745;SDS011;32493;50.514;9.678;2024-03-07T09:19:38;29.17;;;15.23;;
46745;SDS011;32493;50.514;9.678;2024-03-07T09:22:08;22.15;;;12.95;;
46745;SDS011;32493;50.514;9.678;2024-03-07T09:24:40;24.17;;;13.05;;
46745;SDS011;32493;50.514;9.678;2024-03-07T09:27:13;27.75;;;12.77;;
46745;SDS011;32493;50.514;9.678;2024-03-07T09:29:49;23.35;;;13.20;;
46745;SDS011;32493;50.514;9.678;2024-03-07T09:32:23;24.30;;;13.77;;
46745;SDS011;32493;50.514;9.678;2024-03-07T09:34:58;20.10;;;12.20;;
46745;SDS011;32493;50.514;9.678;2024-03-07T09:37:35;21.25;;;12.45;;
46745;SDS011;32493;50.514;9.678;2024-03-07T09:42:44;16.27;;;9.85;;
46745;SDS011;32493;50.514;9.678;2024-03-07T09:45:16;20.65;;;11.52;;
46745;SDS011;32493;50.514;9.678;2024-03-07T09:47:52;23.02;;;11.82;;
46745;SDS011;32493;50.514;9.678;2024-03-07T09:50:31;18.88;;;10.95;;
46745;SDS011;32493;50.514;9.678;2024-03-07T09:53:04;24.42;;;11.57;;
46745;SDS011;32493;50.514;9.678;2024-03-07T09:55:38;20.30;;;11.27;;
46745;SDS011;32493;50.514;9.678;2024-03-07T09:58:08;20.55;;;12.32;;
46745;SDS011;32493;50.514;9.678;2024-03-07T10:00:44;22.48;;;11.48;;
46745;SDS011;32493;50.514;9.678;2024-03-07T10:03:20;20.90;;;11.75;;
46745;SDS011;32493;50.514;9.678;2024-03-07T10:05:54;24.08;;;12.35;;
46745;SDS011;32493;50.514;9.678;2024-03-07T10:08:26;22.35;;;12.63;;
46745;SDS011;32493;50.514;9.678;2024-03-07T10:10:59;20.02;;;11.57;;
46745;SDS011;32493;50.514;9.678;2024-03-07T10:13:33;18.75;;;11.15;;
46745;SDS011;32493;50.514;9.678;2024-03-07T10:16:03;22.30;;;11.95;;
46745;SDS011;32493;50.514;9.678;2024-03-07T10:18:41;18.58;;;10.88;;
46745;SDS011;32493;50.514;9.678;2024-03-07T10:21:16;19.00;;;10.18;;
46745;SDS011;32493;50.514;9.678;2024-03-07T10:23:53;19.30;;;10.07;;
46745;SDS011;32493;50.514;9.678;2024-03-07T10:26:38;18.55;;;10.70;;
46745;SDS011;32493;50.514;9.678;2024-03-07T10:29:10;24.52;;;11.95;;
46745;SDS011;32493;50.514;9.678;2024-03-07T10:31:46;22.42;;;11.15;;
46745;SDS011;32493;50.514;9.678;2024-03-07T10:34:33;21.80;;;11.87;;
46745;SDS011;32493;50.514;9.678;2024-03-07T10:37:07;21.85;;;11.90;;
46745;SDS011;32493;50.514;9.678;2024-03-07T10:39:40;30.02;;;12.70;;
46745;SDS011;32493;50.514;9.678;2024-03-07T10:42:12;22.20;;;11.90;;
46745;SDS011;32493;50.514;9.678;2024-03-07T10:44:47;24.88;;;12.40;;
46745;SDS011;32493;50.514;9.678;2024-03-07T10:47:20;19.17;;;10.43;;
46745;SDS011;32493;50.514;9.678;2024-03-07T10:49:57;21.95;;;10.95;;
46745;SDS011;32493;50.514;9.678;2024-03-07T10:52:48;22.85;;;11.40;;
46745;SDS011;32493;50.514;9.678;2024-03-07T10:55:23;18.20;;;10.82;;
46745;SDS011;32493;50.514;9.678;2024-03-07T10:58:05;21.40;;;11.27;;
46745;SDS011;32493;50.514;9.678;2024-03-07T11:03:29;20.58;;;11.07;;
46745;SDS011;32493;50.514;9.678;2024-03-07T11:06:01;20.33;;;11.65;;
46745;SDS011;32493;50.514;9.678;2024-03-07T11:08:37;18.90;;;11.15;;
46745;SDS011;32493;50.514;9.678;2024-03-07T11:11:08;18.65;;;10.88;;
46745;SDS011;32493;50.514;9.678;2024-03-07T11:13:38;20.70;;;11.52;;
46745;SDS011;32493;50.514;9.678;2024-03-07T11:16:14;18.65;;;10.27;;
46745;SDS011;32493;50.514;9.678;2024-03-07T11:21:56;17.50;;;9.55;;
46745;SDS011;32493;50.514;9.678;2024-03-07T11:24:42;19.40;;;10.35;;
46745;SDS011;32493;50.514;9.678;2024-03-07T11:27:12;15.82;;;8.95;;
46745;SDS011;32493;50.514;9.678;2024-03-07T11:29:47;14.20;;;8.65;;
46745;SDS011;32493;50.514;9.678;2024-03-07T11:32:22;15.65;;;8.90;;
46745;SDS011;32493;50.514;9.678;2024-03-07T11:35:03;16.75;;;9.07;;
46745;SDS011;32493;50.514;9.678;2024-03-07T11:37:45;19.20;;;10.43;;
46745;SDS011;32493;50.514;9.678;2024-03-07T11:43:31;20.15;;;11.43;;
46745;SDS011;32493;50.514;9.678;2024-03-07T11:46:10;19.38;;;11.25;;
46745;SDS011;32493;50.514;9.678;2024-03-07T11:48:50;19.05;;;11.38;;
46745;SDS011;32493;50.514;9.678;2024-03-07T11:51:28;21.25;;;10.88;;
46745;SDS011;32493;50.514;9.678;2024-03-07T11:54:17;23.35;;;12.63;;
46745;SDS011;32493;50.514;9.678;2024-03-07T11:56:56;26.47;;;13.90;;
46745;SDS011;32493;50.514;9.678;2024-03-07T11:59:29;20.52;;;11.77;;
46745;SDS011;32493;50.514;9.678;2024-03-07T12:02:05;29.75;;;13.40;;
46745;SDS011;32493;50.514;9.678;2024-03-07T12:04:46;23.92;;;12.68;;
46745;SDS011;32493;50.514;9.678;2024-03-07T12:07:19;21.10;;;12.52;;
46745;SDS011;32493;50.514;9.678;2024-03-07T12:09:52;28.00;;;13.25;;
46745;SDS011;32493;50.514;9.678;2024-03-07T12:12:31;26.38;;;12.30;;
46745;SDS011;32493;50.514;9.678;2024-03-07T12:15:08;23.00;;;12.25;;
46745;SDS011;32493;50.514;9.678;2024-03-07T12:17:47;22.65;;;12.57;;
46745;SDS011;32493;50.514;9.678;2024-03-07T12:20:19;21.60;;;12.98;;
46745;SDS011;32493;50.514;9.678;2024-03-07T12:23:03;21.63;;;12.20;;
46745;SDS011;32493;50.514;9.678;2024-03-07T12:25:38;25.25;;;13.20;;
46745;SDS011;32493;50.514;9.678;2024-03-07T12:28:21;21.85;;;12.10;;
46745;SDS011;32493;50.514;9.678;2024-03-07T12:30:57;22.02;;;12.73;;
46745;SDS011;32493;50.514;9.678;2024-03-07T12:33:30;24.52;;;12.73;;
46745;SDS011;32493;50.514;9.678;2024-03-07T12:36:08;25.88;;;11.48;;
46745;SDS011;32493;50.514;9.678;2024-03-07T12:38:44;25.10;;;12.85;;
46745;SDS011;32493;50.514;9.678;2024-03-07T12:41:17;28.65;;;12.93;;
46745;SDS011;32493;50.514;9.678;2024-03-07T12:43:50;24.95;;;13.20;;
46745;SDS011;32493;50.514;9.678;2024-03-07T12:46:22;25.45;;;12.60;;
46745;SDS011;32493;50.514;9.678;2024-03-07T12:48:55;23.65;;;13.40;;
46745;SDS011;32493;50.514;9.678;2024-03-07T12:51:32;24.33;;;12.57;;
46745;SDS011;32493;50.514;9.678;2024-03-07T12:54:09;23.08;;;12.55;;
46745;SDS011;32493;50.514;9.678;2024-03-07T12:56:42;24.40;;;12.95;;
46745;SDS011;32493;50.514;9.678;2024-03-07T12:59:23;24.23;;;12.85;;
46745;SDS011;32493;50.514;9.678;2024-03-07T13:01:53;27.63;;;13.38;;
46745;SDS011;32493;50.514;9.678;2024-03-07T13:04:30;21.45;;;12.10;;
46745;SDS011;32493;50.514;9.678;2024-03-07T13:07:11;21.05;;;12.13;;
46745;SDS011;32493;50.514;9.678;2024-03-07T13:09:49;22.85;;;11.98;;
46745;SDS011;32493;50.514;9.678;2024-03-07T13:12:23;26.30;;;13.45;;
46745;SDS011;32493;50.514;9.678;2024-03-07T13:14:59;25.50;;;13.10;;
46745;SDS011;32493;50.514;9.678;2024-03-07T13:17:35;28.55;;;15.10;;
46745;SDS011;32493;50.514;9.678;2024-03-07T13:20:09;26.23;;;13.80;;
46745;SDS011;32493;50.514;9.678;2024-03-07T13:22:47;22.90;;;12.57;;
46745;SDS011;32493;50.514;9.678;2024-03-07T13:25:31;27.33;;;13.93;;
46745;SDS011;32493;50.514;9.678;2024-03-07T13:28:11;28.27;;;13.57;;
46745;SDS011;32493;50.514;9.678;2024-03-07T13:30:54;22.58;;;14.05;;
46745;SDS011;32493;50.514;9.678;2024-03-07T13:33:29;25.37;;;14.23;;
46745;SDS011;32493;50.514;9.678;2024-03-07T13:36:01;25.75;;;13.98;;
46745;SDS011;32493;50.514;9.678;2024-03-07T13:38:42;27.75;;;13.35;;
46745;SDS011;32493;50.514;9.678;2024-03-07T13:41:12;23.05;;;13.68;;
46745;SDS011;32493;50.514;9.678;2024-03-07T13:43:44;21.45;;;12.55;;
46745;SDS011;32493;50.514;9.678;2024-03-07T13:46:19;28.48;;;14.43;;
46745;SDS011;32493;50.514;9.678;2024-03-07T13:48:51;27.05;;;14.75;;
46745;SDS011;32493;50.514;9.678;2024-03-07T13:51:36;25.90;;;13.32;;
46745;SDS011;32493;50.514;9.678;2024-03-07T13:54:19;26.08;;;13.52;;
46745;SDS011;32493;50.514;9.678;2024-03-07T13:57:08;23.55;;;12.30;;
46745;SDS011;32493;50.514;9.678;2024-03-07T14:00:05;35.60;;;14.70;;
46745;SDS011;32493;50.514;9.678;2024-03-07T14:06:04;21.85;;;13.13;;
46745;SDS011;32493;50.514;9.678;2024-03-07T14:08:46;23.73;;;12.95;;
46745;SDS011;32493;50.514;9.678;2024-03-07T14:14:45;22.02;;;13.13;;
46745;SDS011;32493;50.514;9.678;2024-03-07T14:17:43;18.60;;;11.02;;
46745;SDS011;32493;50.514;9.678;2024-03-07T14:20:47;20.15;;;11.55;;
46745;SDS011;32493;50.514;9.678;2024-03-07T14:23:54;25.15;;;11.48;;
46745;SDS011;32493;50.514;9.678;2024-03-07T14:26:59;21.83;;;11.57;;
46745;SDS011;32493;50.514;9.678;2024-03-07T14:30:05;26.23;;;11.88;;
46745;SDS011;32493;50.514;9.678;2024-03-07T14:32:51;18.83;;;10.93;;
46745;SDS011;32493;50.514;9.678;2024-03-07T14:35:30;24.02;;;11.15;;
46745;SDS011;32493;50.514;9.678;2024-03-07T14:38:05;20.77;;;11.85;;
46745;SDS011;32493;50.514;9.678;2024-03-07T14:40:57;18.90;;;11.82;;
46745;SDS011;32493;50.514;9.678;2024-03-07T14:43:30;19.23;;;10.80;;
46745;SDS011;32493;50.514;9.678;2024-03-07T14:46:02;20.90;;;11.35;;
46745;SDS011;32493;50.514;9.678;2024-03-07T14:48:33;19.77;;;11.27;;
46745;SDS011;32493;50.514;9.678;2024-03-07T14:51:05;21.20;;;10.82;;
46745;SDS011;32493;50.514;9.678;2024-03-07T14:56:19;28.50;;;12.60;;
46745;SDS011;32493;50.514;9.678;2024-03-07T14:58:55;21.90;;;11.73;;
46745;SDS011;32493;50.514;9.678;2024-03-07T15:01:25;24.77;;;12.55;;
46745;SDS011;32493;50.514;9.678;2024-03-07T15:03:57;21.60;;;12.23;;
46745;SDS011;32493;50.514;9.678;2024-03-07T15:06:31;19.45;;;11.77;;
46745;SDS011;32493;50.514;9.678;2024-03-07T15:09:06;23.40;;;12.38;;
46745;SDS011;32493;50.514;9.678;2024-03-07T15:11:42;19.23;;;11.43;;
46745;SDS011;32493;50.514;9.678;2024-03-07T15:14:21;21.98;;;12.10;;
46745;SDS011;32493;50.514;9.678;2024-03-07T15:17:05;21.13;;;12.40;;
46745;SDS011;32493;50.514;9.678;2024-03-07T15:19:38;24.35;;;13.88;;
46745;SDS011;32493;50.514;9.678;2024-03-07T15:22:14;18.90;;;12.95;;
46745;SDS011;32493;50.514;9.678;2024-03-07T15:24:50;22.33;;;13.23;;
46745;SDS011;32493;50.514;9.678;2024-03-07T15:27:23;24.48;;;13.10;;
46745;SDS011;32493;50.514;9.678;2024-03-07T15:29:56;24.98;;;14.52;;
46745;SDS011;32493;50.514;9.678;2024-03-07T15:32:31;24.30;;;14.13;;